Time;durP1;ratioP1;P1;durP2;ratioP2;P2;SDS_P1;SDS_P2;PMS_P1;PMS_P2;Temp;Humidity;BMP_temperature;BMP_pressure;BME280_temperature;BME280_humidity;BME280_pressure;Samples;Min_cycle;Max_cycle;Signal;HPM_P1;HPM_P2
2024/03/10 00:02:00;;;;;;;3.10;1.50;;;;;;;-0.55;40.96;99450.53;4922745;28;20137;-75
2024/03/10 00:04:28;;;;;;;2.13;1.53;;;;;;;-0.56;41.05;99448.88;4954548;28;20122;-73
2024/03/10 00:06:55;;;;;;;1.80;1.40;;;;;;;-0.56;41.09;99446.25;4938439;28;20047;-74
2024/03/10 00:09:21;;;;;;;3.27;1.60;;;;;;;-0.59;40.57;99446.44;4938215;28;20053;-74
2024/03/10 00:11:48;;;;;;;2.37;1.53;;;;;;;-0.64;40.22;99444.13;4922693;28;20050;-73
2024/03/10 00:14:16;;;;;;;1.77;1.40;;;;;;;-0.63;40.17;99447.56;4938641;28;20402;-72
2024/03/10 00:16:43;;;;;;;2.93;1.90;;;;;;;-0.63;40.08;99447.56;4938504;28;20539;-71
2024/03/10 00:19:11;;;;;;;3.57;1.43;;;;;;;-0.64;40.13;99448.47;4938318;28;20143;-70
2024/03/10 00:21:37;;;;;;;1.83;1.30;;;;;;;-0.64;40.05;99443.28;4938324;28;20070;-71
2024/03/10 00:24:07;;;;;;;2.73;1.70;;;;;;;-0.61;39.97;99448.31;4937871;28;20064;-72
2024/03/10 00:26:34;;;;;;;1.65;1.50;;;;;;;-0.68;40.18;99439.19;5017902;28;20070;-70
2024/03/10 00:29:01;;;;;;;1.60;1.30;;;;;;;-0.68;39.86;99442.66;5066843;28;20071;-73
2024/03/10 00:31:27;;;;;;;1.50;1.40;;;;;;;-0.66;40.31;99442.53;5054004;28;20139;-72
2024/03/10 00:33:55;;;;;;;2.07;1.50;;;;;;;-0.67;40.10;99444.31;5003670;28;20064;-72
2024/03/10 00:36:21;;;;;;;2.27;1.63;;;;;;;-0.69;40.20;99446.16;5020133;28;20144;-72
2024/03/10 00:38:46;;;;;;;2.03;1.40;;;;;;;-0.72;40.00;99437.69;5019032;28;20118;-71
2024/03/10 00:41:13;;;;;;;2.00;1.33;;;;;;;-0.70;39.93;99439.28;5002340;28;20037;-72
2024/03/10 00:43:39;;;;;;;1.30;1.20;;;;;;;-0.71;39.82;99434.97;5034845;28;20044;-73
2024/03/10 00:46:07;;;;;;;2.33;1.30;;;;;;;-0.69;39.98;99435.72;5002101;28;20483;-73
2024/03/10 00:48:33;;;;;;;1.57;1.30;;;;;;;-0.74;40.29;99437.78;5018399;28;20044;-73
2024/03/10 00:50:59;;;;;;;1.60;1.50;;;;;;;-0.74;40.11;99436.94;5002051;28;20048;-71
2024/03/10 00:53:26;;;;;;;2.27;1.40;;;;;;;-0.79;40.16;99436.38;5034594;28;20056;-71
2024/03/10 00:55:52;;;;;;;1.80;1.40;;;;;;;-0.77;40.72;99440.56;5052619;28;20044;-72
2024/03/10 00:58:18;;;;;;;1.43;1.30;;;;;;;-0.73;40.45;99434.25;5070384;28;20037;-72
2024/03/10 01:00:44;;;;;;;3.37;1.40;;;;;;;-0.76;40.48;99446.63;5020940;28;20060;-72
2024/03/10 01:03:11;;;;;;;1.67;1.30;;;;;;;-0.75;40.81;99436.09;5069717;28;20037;-71
2024/03/10 01:05:37;;;;;;;2.67;1.43;;;;;;;-0.73;41.49;99436.84;5020453;28;20200;-74
2024/03/10 01:08:04;;;;;;;3.03;1.70;;;;;;;-0.74;42.34;99429.94;5004317;28;20147;-75
2024/03/10 01:10:31;;;;;;;2.67;1.80;;;;;;;-0.75;43.26;99430.03;5036672;28;20135;-72
2024/03/10 01:12:58;;;;;;;3.53;1.73;;;;;;;-0.78;44.01;99420.66;5036384;28;20083;-73
2024/03/10 01:15:24;;;;;;;3.97;2.00;;;;;;;-0.77;44.83;99419.69;5052320;28;20036;-74
2024/03/10 01:17:50;;;;;;;3.93;2.00;;;;;;;-0.77;44.36;99437.97;5019417;28;20052;-73
2024/03/10 01:20:16;;;;;;;5.27;1.97;;;;;;;-0.78;45.12;99438.03;5052854;28;20108;-72
2024/03/10 01:22:42;;;;;;;4.37;2.00;;;;;;;-0.81;44.80;99433.88;5019383;28;20133;-73
2024/03/10 01:25:09;;;;;;;3.33;2.33;;;;;;;-0.76;44.85;99434.44;5053101;28;20074;-69
2024/03/10 01:27:37;;;;;;;3.87;2.10;;;;;;;-0.82;44.59;99437.41;5036385;28;20084;-72
2024/03/10 01:30:03;;;;;;;3.43;2.30;;;;;;;-0.82;45.26;99440.03;5035924;28;20051;-72
2024/03/10 01:32:32;;;;;;;3.27;1.90;;;;;;;-0.83;45.89;99437.50;5036917;28;20048;-74
2024/03/10 01:34:58;;;;;;;3.30;2.20;;;;;;;-0.83;46.64;99445.31;5034934;28;20106;-77
2024/03/10 01:37:25;;;;;;;4.03;2.10;;;;;;;-0.84;47.38;99444.47;5018951;28;20053;-75
2024/03/10 01:39:50;;;;;;;6.37;3.00;;;;;;;-0.84;47.88;99436.66;5035906;28;20056;-74
2024/03/10 01:42:17;;;;;;;5.40;2.53;;;;;;;-0.84;47.90;99439.28;5019872;28;20037;-74
2024/03/10 01:44:44;;;;;;;5.07;2.40;;;;;;;-0.84;47.45;99444.47;5020664;28;20052;-74
2024/03/10 01:47:10;;;;;;;8.47;2.57;;;;;;;-0.85;46.86;99437.59;5019157;28;20049;-75
2024/03/10 01:49:37;;;;;;;5.77;2.70;;;;;;;-0.86;47.04;99446.34;5052052;28;20048;-74
2024/03/10 01:52:04;;;;;;;6.80;2.50;;;;;;;-0.85;46.03;99432.38;5035724;28;20198;-76
2024/03/10 01:54:33;;;;;;;4.60;2.47;;;;;;;-0.80;45.50;99440.75;5034979;28;20044;-74
2024/03/10 01:57:00;;;;;;;4.73;2.20;;;;;;;-0.87;44.94;99449.88;5019111;28;20048;-74
2024/03/10 01:59:26;;;;;;;3.47;2.10;;;;;;;-0.86;44.59;99432.47;5035263;28;20037;-73
2024/03/10 02:01:54;;;;;;;4.73;2.00;;;;;;;-0.85;44.01;99441.97;5018674;28;20041;-74
2024/03/10 02:04:20;;;;;;;5.13;2.13;;;;;;;-0.90;44.18;99439.63;5034977;28;20041;-75
2024/03/10 02:06:46;;;;;;;3.83;2.00;;;;;;;-0.94;44.00;99435.50;5034038;28;20483;-74
2024/03/10 02:09:16;;;;;;;3.00;2.03;;;;;;;-0.98;43.69;99439.25;5019987;28;20107;-75
2024/03/10 02:11:43;;;;;;;3.93;1.80;;;;;;;-1.01;43.40;99434.22;5005112;28;20076;-72
2024/03/10 02:14:09;;;;;;;2.67;2.00;;;;;;;-1.02;43.27;99439.53;5052292;28;20036;-74
2024/03/10 02:16:35;;;;;;;1.90;1.70;;;;;;;-1.06;43.36;99438.84;5052264;28;20545;-72
2024/03/10 02:19:03;;;;;;;2.37;1.70;;;;;;;-1.04;43.76;99442.22;5035954;28;20103;-71
2024/03/10 02:21:29;;;;;;;3.10;1.70;;;;;;;-1.06;43.67;99449.28;5051955;28;20045;-71
2024/03/10 02:24:11;;;;;;;2.27;1.77;;;;;;;-1.01;45.42;99441.19;5034786;28;20053;-72
2024/03/10 02:26:41;;;;;;;7.60;2.73;;;;;;;-1.04;46.53;99441.38;5052406;28;20064;-71
2024/03/10 02:29:18;;;;;;;5.97;2.63;;;;;;;-1.08;48.26;99442.50;5053879;28;20044;-72
2024/03/10 02:48:20;;;;;;;9.17;4.67;;;;;;;-1.86;50.52;99455.72;5040013;28;20064;-72
2024/03/10 02:50:46;;;;;;;10.37;4.67;;;;;;;-1.84;51.44;99452.09;5053880;28;20080;-72
2024/03/10 02:53:12;;;;;;;6.83;4.20;;;;;;;-1.81;50.77;99457.13;5054523;28;20549;-70
2024/03/10 02:55:38;;;;;;;7.93;3.30;;;;;;;-1.79;51.01;99447.47;5021252;28;20048;-72
2024/03/10 02:58:06;;;;;;;10.23;3.53;;;;;;;-1.69;51.25;99455.59;5037247;28;20500;-72
2024/03/10 03:00:32;;;;;;;8.73;3.60;;;;;;;-1.64;51.20;99455.34;5055644;28;20074;-74
2024/03/10 03:02:59;;;;;;;7.17;3.20;;;;;;;-1.61;50.84;99463.81;5073287;28;20040;-76
2024/03/10 03:05:27;;;;;;;7.70;3.40;;;;;;;-1.57;51.76;99459.28;5038400;28;20052;-74
2024/03/10 03:07:54;;;;;;;6.43;3.40;;;;;;;-1.49;52.01;99460.50;5070601;28;20044;-72
2024/03/10 03:10:20;;;;;;;12.00;3.93;;;;;;;-1.48;52.03;99461.34;5037375;28;20048;-72
2024/03/10 03:12:47;;;;;;;8.20;3.07;;;;;;;-1.45;52.80;99462.03;5054010;28;20090;-71
2024/03/10 03:15:15;;;;;;;5.37;3.33;;;;;;;-1.46;53.50;99468.16;5020592;28;20040;-69
2024/03/10 03:17:42;;;;;;;8.50;3.63;;;;;;;-1.38;53.62;99470.34;5038230;28;20114;-69
2024/03/10 03:20:26;;;;;;;6.67;3.50;;;;;;;-1.35;53.74;99459.75;5021421;28;20044;-72
2024/03/10 03:22:52;;;;;;;7.53;3.40;;;;;;;-1.40;52.44;99470.44;5072366;28;20047;-71
2024/03/10 03:25:18;;;;;;;8.33;3.90;;;;;;;-1.39;52.18;99464.28;5053649;28;20383;-71
2024/03/10 03:27:50;;;;;;;7.13;3.67;;;;;;;-1.27;52.60;99465.31;5053912;28;20379;-75
2024/03/10 03:30:17;;;;;;;5.07;2.90;;;;;;;-1.29;52.97;99462.81;5037051;28;20071;-74
2024/03/10 03:32:47;;;;;;;6.77;3.43;;;;;;;-1.30;52.09;99453.34;5038244;28;20044;-74
2024/03/10 03:35:16;;;;;;;5.53;3.13;;;;;;;-1.27;51.47;99462.72;5021570;28;20048;-73
2024/03/10 03:37:42;;;;;;;6.60;3.10;;;;;;;-1.23;51.28;99459.03;5037880;28;20049;-75
2024/03/10 03:40:19;;;;;;;6.30;3.03;;;;;;;-1.24;51.04;99460.78;5021088;28;20045;-75
2024/03/10 03:42:45;;;;;;;5.53;2.80;;;;;;;-1.29;51.25;99468.03;5038861;28;20087;-75
2024/03/10 03:45:11;;;;;;;7.67;3.80;;;;;;;-1.27;52.66;99462.72;5054040;28;20110;-76
2024/03/10 03:47:37;;;;;;;7.50;3.17;;;;;;;-1.25;52.78;99468.69;5020879;28;20109;-75
2024/03/10 03:50:03;;;;;;;5.93;3.03;;;;;;;-1.24;53.62;99466.00;5021444;28;20163;-76
2024/03/10 03:52:30;;;;;;;9.87;3.77;;;;;;;-1.23;54.47;99464.25;5054295;28;20051;-76
2024/03/10 03:54:57;;;;;;;5.63;2.90;;;;;;;-1.22;54.62;99471.97;5037160;28;20040;-75
2024/03/10 03:57:23;;;;;;;8.07;3.50;;;;;;;-1.22;54.50;99469.34;5037102;28;20036;-74
2024/03/10 03:59:50;;;;;;;4.60;2.80;;;;;;;-1.23;55.12;99465.06;5043236;28;20040;-76
2024/03/10 04:02:18;;;;;;;7.77;3.60;;;;;;;-1.23;54.18;99467.66;5045909;28;20048;-75
2024/03/10 04:04:44;;;;;;;7.50;3.30;;;;;;;-1.23;55.60;99470.28;5029822;28;20098;-71
2024/03/10 04:07:10;;;;;;;7.97;3.60;;;;;;;-1.22;56.09;99468.50;5024602;28;20405;-74
2024/03/10 04:09:36;;;;;;;6.20;3.30;;;;;;;-1.20;54.88;99477.91;5041477;28;20059;-75
2024/03/10 04:12:03;;;;;;;9.77;3.70;;;;;;;-1.17;53.88;99480.34;5004002;28;20582;-74
2024/03/10 04:14:28;;;;;;;7.90;3.23;;;;;;;-1.16;54.32;99478.56;5020159;28;20125;-74
2024/03/10 04:16:56;;;;;;;10.63;3.50;;;;;;;-1.11;53.74;99476.53;5003468;28;20056;-75
2024/03/10 04:19:22;;;;;;;7.63;3.10;;;;;;;-1.14;51.98;99476.72;5020762;28;20058;-74
2024/03/10 04:21:48;;;;;;;5.33;2.77;;;;;;;-1.16;50.54;99484.63;4987501;28;20044;-74
2024/03/10 04:24:15;;;;;;;5.23;2.50;;;;;;;-1.11;50.00;99486.97;5006006;28;20203;-75
2024/03/10 04:26:43;;;;;;;4.57;2.90;;;;;;;-1.09;49.58;99495.56;5004806;28;20056;-74
2024/03/10 04:29:11;;;;;;;4.90;2.87;;;;;;;-1.12;49.45;99486.13;4965215;28;20120;-75
2024/03/10 04:31:38;;;;;;;4.13;2.77;;;;;;;-1.16;49.51;99484.63;4981323;28;20044;-75
2024/03/10 04:34:05;;;;;;;6.17;3.20;;;;;;;-1.20;49.09;99484.91;4981451;28;20050;-75
2024/03/10 04:36:31;;;;;;;7.97;3.10;;;;;;;-1.24;48.59;99492.06;4964810;28;20053;-74
2024/03/10 04:38:59;;;;;;;5.70;2.70;;;;;;;-1.29;48.70;99494.06;4964405;28;20574;-74
2024/03/10 04:41:27;;;;;;;7.63;3.70;;;;;;;-1.32;48.38;99499.47;4964665;28;20041;-75
2024/03/10 04:43:53;;;;;;;7.47;3.33;;;;;;;-1.33;48.62;99500.41;4964282;28;20421;-75
2024/03/10 04:46:19;;;;;;;5.80;2.83;;;;;;;-1.34;48.42;99503.09;4964183;28;20053;-75
2024/03/10 04:48:46;;;;;;;5.47;2.57;;;;;;;-1.29;48.11;99507.09;4973327;28;20056;-70
2024/03/10 04:51:14;;;;;;;7.37;2.70;;;;;;;-1.24;48.25;99510.28;5005281;28;20099;-73
2024/03/10 04:53:42;;;;;;;7.93;3.70;;;;;;;-1.17;48.02;99514.19;5004423;28;20052;-71
2024/03/10 04:56:12;;;;;;;6.97;2.73;;;;;;;-1.13;47.64;99515.72;5020640;28;20083;-73
2024/03/10 04:58:41;;;;;;;5.60;2.40;;;;;;;-1.06;47.38;99514.44;5004434;28;20037;-71
2024/03/10 05:01:10;;;;;;;7.67;2.70;;;;;;;-1.05;47.05;99518.72;5004260;28;20685;-71
2024/03/10 05:03:37;;;;;;;3.60;2.30;;;;;;;-1.04;46.22;99520.41;5003413;28;20398;-71
2024/03/10 05:06:04;;;;;;;6.37;2.10;;;;;;;-1.00;45.65;99534.09;5003529;28;20037;-72
2024/03/10 05:08:30;;;;;;;7.60;2.37;;;;;;;-0.97;45.40;99539.13;5003136;28;20040;-70
2024/03/10 05:10:55;;;;;;;4.30;1.67;;;;;;;-0.93;44.97;99533.66;5018418;28;20044;-72
2024/03/10 05:13:21;;;;;;;3.33;2.10;;;;;;;-0.86;44.61;99534.16;5016177;28;20373;-72
2024/03/10 05:15:48;;;;;;;2.40;1.83;;;;;;;-0.88;44.42;99541.22;5000241;28;20066;-71
2024/03/10 05:18:17;;;;;;;4.30;2.03;;;;;;;-0.86;44.64;99536.75;5000656;28;20052;-73
2024/03/10 05:20:43;;;;;;;5.87;2.10;;;;;;;-0.90;44.92;99543.91;5000663;28;20077;-72
2024/03/10 05:23:10;;;;;;;3.60;2.10;;;;;;;-0.92;44.89;99550.97;4984222;28;20080;-76
2024/03/10 05:25:39;;;;;;;3.10;1.90;;;;;;;-0.96;45.06;99557.28;4999256;28;20068;-80
2024/03/10 05:28:05;;;;;;;5.17;2.23;;;;;;;-1.02;45.90;99555.03;4960643;28;20057;-74
2024/03/10 05:30:31;;;;;;;2.70;1.90;;;;;;;-1.15;47.27;99551.44;4979064;28;20053;-74
2024/03/10 05:32:57;;;;;;;5.30;2.20;;;;;;;-1.21;48.51;99557.00;4995764;28;20056;-76
2024/03/10 05:35:25;;;;;;;3.83;2.10;;;;;;;-1.25;49.85;99555.50;4992244;28;20407;-75
2024/03/10 05:37:51;;;;;;;2.90;2.03;;;;;;;-1.23;50.39;99565.84;4943910;28;20529;-78
2024/03/10 05:40:18;;;;;;;7.63;2.20;;;;;;;-1.18;50.72;99558.59;4976269;28;20054;-73
2024/03/10 05:42:47;;;;;;;2.73;1.70;;;;;;;-1.14;51.25;99566.16;4964499;28;20053;-71
2024/03/10 05:45:13;;;;;;;2.50;1.70;;;;;;;-1.07;51.22;99562.28;4993925;28;20115;-72
2024/03/10 05:47:39;;;;;;;4.40;2.47;;;;;;;-1.01;51.53;99561.91;4976170;28;20054;-73
2024/03/10 05:50:09;;;;;;;2.97;2.10;;;;;;;-0.91;51.33;99568.31;4943693;28;20051;-73
2024/03/10 05:52:35;;;;;;;3.20;2.17;;;;;;;-0.85;50.79;99574.91;4959951;28;20061;-72
2024/03/10 05:55:07;;;;;;;3.10;2.23;;;;;;;-0.75;50.62;99578.66;4959989;28;20062;-77
2024/03/10 05:57:36;;;;;;;4.30;1.90;;;;;;;-0.74;50.19;99575.97;4975267;28;20045;-81
2024/03/10 06:00:05;;;;;;;2.03;1.70;;;;;;;-0.62;49.20;99585.69;5015550;28;20080;-81
2024/03/10 06:02:37;;;;;;;3.60;1.87;;;;;;;-0.49;48.70;99580.56;5011023;28;20120;-81
2024/03/10 06:05:04;;;;;;;4.43;2.00;;;;;;;-0.35;48.04;99593.66;5002025;28;20037;-81
2024/03/10 06:07:31;;;;;;;3.27;2.10;;;;;;;-0.26;47.18;99591.31;5017842;28;20075;-80
2024/03/10 06:09:57;;;;;;;3.53;1.93;;;;;;;-0.14;46.14;99595.00;5058013;28;20386;-82
2024/03/10 06:12:23;;;;;;;3.70;2.30;;;;;;;-0.05;45.01;99592.63;5035756;28;20098;-79
2024/03/10 06:14:51;;;;;;;4.53;1.77;;;;;;;0.06;44.44;99594.63;5038922;28;20044;-73
2024/03/10 06:17:17;;;;;;;4.60;1.97;;;;;;;0.07;43.66;99591.06;5028112;28;20106;-76
2024/03/10 06:25:30;;;;;;;4.40;2.40;;;;;;;0.12;41.70;99601.22;5018427;28;20436;-78
2024/03/10 06:27:57;;;;;;;6.83;2.47;;;;;;;0.19;41.49;99611.19;5013001;28;20053;-77
2024/03/10 06:30:23;;;;;;;4.43;2.40;;;;;;;0.35;40.97;99604.13;5008598;28;20131;-79
2024/03/10 06:33:15;;;;;;;4.23;2.20;;;;;;;0.60;40.94;99596.38;4999192;28;20041;-79
2024/03/10 06:35:42;;;;;;;3.17;2.20;;;;;;;0.62;40.43;99601.53;5045297;28;20046;-76
2024/03/10 06:38:09;;;;;;;4.33;2.10;;;;;;;0.60;40.15;99598.19;5013823;28;20033;-78
2024/03/10 06:40:35;;;;;;;6.60;1.90;;;;;;;0.62;39.40;99604.13;4990177;28;20088;-75
2024/03/10 06:43:03;;;;;;;2.93;1.60;;;;;;;0.64;39.51;99607.50;5011943;28;20150;-79
2024/03/10 06:45:34;;;;;;;2.73;1.70;;;;;;;0.74;39.53;99603.38;4993136;28;20079;-80
2024/03/10 06:48:01;;;;;;;3.23;1.90;;;;;;;0.83;39.33;99608.03;5014758;28;20104;-78
2024/03/10 06:50:31;;;;;;;2.63;1.83;;;;;;;0.90;39.22;99614.53;5001394;28;20119;-77
2024/03/10 06:52:59;;;;;;;4.50;2.00;;;;;;;1.05;39.47;99616.13;5023263;28;20044;-75
2024/03/10 06:55:26;;;;;;;2.77;1.90;;;;;;;1.20;39.11;99617.78;5015171;28;20041;-75
2024/03/10 06:57:53;;;;;;;4.87;1.90;;;;;;;1.33;38.63;99622.13;4993919;28;20061;-73
2024/03/10 07:00:29;;;;;;;3.47;1.57;;;;;;;1.48;38.57;99615.00;4954933;28;20129;-82
2024/03/10 07:03:02;;;;;;;5.15;2.67;;;;;;;1.73;38.07;99613.28;4952101;28;20075;-78
2024/03/10 07:05:28;;;;;;;2.80;1.63;;;;;;;1.81;37.85;99614.53;4978734;28;20113;-79
2024/03/10 07:07:57;;;;;;;4.30;1.83;;;;;;;1.82;37.85;99624.06;4937336;29;20027;-74
2024/03/10 07:10:24;;;;;;;3.00;1.92;;;;;;;1.72;37.58;99614.22;4918702;29;20099;-75
2024/03/10 07:12:50;;;;;;;5.23;2.23;;;;;;;1.80;37.35;99623.34;4949763;29;20047;-77
2024/03/10 07:15:16;;;;;;;2.70;1.93;;;;;;;1.88;37.30;99621.88;4949151;29;20572;-80
2024/03/10 07:17:42;;;;;;;2.33;1.73;;;;;;;2.08;36.77;99628.34;4917384;29;20087;-78
2024/03/10 07:20:08;;;;;;;3.87;1.80;;;;;;;2.36;36.55;99628.13;4919246;29;20082;-76
2024/03/10 07:22:37;;;;;;;2.90;2.00;;;;;;;2.65;36.30;99633.00;4935013;29;20055;-80
2024/03/10 07:25:06;;;;;;;3.10;2.07;;;;;;;3.08;36.06;99629.00;4885175;29;20050;-80
2024/03/10 07:27:32;;;;;;;3.27;2.40;;;;;;;3.85;35.42;99624.97;4916203;29;20514;-82
2024/03/10 07:29:58;;;;;;;4.77;2.77;;;;;;;5.06;33.75;99617.03;4932612;29;20051;-78
2024/03/10 07:32:26;;;;;;;3.77;3.10;;;;;;;7.08;31.44;99621.59;4917924;29;20058;-82
2024/03/10 07:34:52;;;;;;;3.22;2.63;;;;;;;9.01;28.80;99630.69;4932404;29;20607;-78
2024/03/10 07:37:21;;;;;;;3.92;2.90;;;;;;;10.52;26.56;99628.72;4933169;29;20071;-78
2024/03/10 07:39:47;;;;;;;2.35;2.10;;;;;;;11.91;24.76;99623.47;4941838;28;20409;-81
2024/03/10 07:42:15;;;;;;;2.40;2.08;;;;;;;12.41;23.06;99620.56;4919319;29;20485;-77
2024/03/10 07:44:42;;;;;;;2.17;1.60;;;;;;;12.97;22.26;99623.88;4945428;28;20046;-79
2024/03/10 07:47:08;;;;;;;1.88;1.77;;;;;;;13.73;21.50;99629.25;4941507;28;20140;-83
2024/03/10 07:49:34;;;;;;;4.20;2.03;;;;;;;14.41;20.26;99630.03;4941879;28;20779;-81
2024/03/10 07:52:00;;;;;;;2.97;2.08;;;;;;;15.20;19.22;99635.47;4958035;28;20108;-81
2024/03/10 07:54:26;;;;;;;4.22;2.72;;;;;;;15.80;18.71;99631.59;4957344;28;20054;-77
2024/03/10 07:56:55;;;;;;;4.38;2.90;;;;;;;16.19;17.97;99635.47;4972549;28;20050;-82
2024/03/10 07:59:21;;;;;;;4.32;2.30;;;;;;;16.98;17.48;99630.66;4957860;28;20054;-81
2024/03/10 08:01:51;;;;;;;2.47;1.90;;;;;;;18.12;16.86;99631.41;4951505;28;20107;-82
2024/03/10 08:04:18;;;;;;;2.13;1.80;;;;;;;18.90;16.20;99638.59;4981511;28;20049;-83
2024/03/10 08:06:45;;;;;;;1.98;1.50;;;;;;;19.01;15.60;99627.16;4981201;28;20426;-77
2024/03/10 08:09:15;;;;;;;2.17;1.35;;;;;;;18.42;15.25;99632.66;5007043;28;20046;-80
2024/03/10 08:11:42;;;;;;;2.30;1.20;;;;;;;17.67;15.32;99635.69;4966591;28;20141;-75
2024/03/10 08:14:08;;;;;;;2.60;2.40;;;;;;;18.28;15.31;99636.38;4960672;28;20065;-75
2024/03/10 08:16:34;;;;;;;2.60;2.40;;;;;;;19.68;14.68;99632.91;4976362;28;20124;-75
2024/03/10 08:19:01;;;;;;;3.28;2.97;;;;;;;21.42;13.75;99631.50;4965955;28;20080;-74
2024/03/10 08:21:29;;;;;;;3.78;3.22;;;;;;;22.86;12.50;99621.94;5012879;28;20053;-75
2024/03/10 08:23:56;;;;;;;5.97;3.70;;;;;;;24.05;11.93;99627.34;4980478;28;20136;-75
2024/03/10 08:26:22;;;;;;;5.95;3.20;;;;;;;24.81;11.18;99613.13;5023830;28;20083;-76
2024/03/10 08:28:48;;;;;;;3.30;2.95;;;;;;;25.37;10.42;99617.41;5033475;28;20053;-75
2024/03/10 08:31:17;;;;;;;3.40;3.10;;;;;;;25.80;10.55;99617.34;5017434;28;20052;-76
2024/03/10 08:33:46;;;;;;;2.97;2.67;;;;;;;26.52;9.85;99620.44;5060515;28;20226;-83
2024/03/10 08:36:12;;;;;;;3.13;2.90;;;;;;;26.93;9.54;99625.09;5008981;28;20117;-76
2024/03/10 08:38:40;;;;;;;4.35;3.10;;;;;;;26.99;9.29;99616.69;5024407;28;20053;-84
2024/03/10 08:41:06;;;;;;;3.20;2.90;;;;;;;26.89;8.91;99624.00;5008765;28;20046;-80
2024/03/10 08:43:33;;;;;;;3.00;2.80;;;;;;;27.14;8.88;99618.69;4993724;28;20101;-80
2024/03/10 08:46:04;;;;;;;2.47;2.22;;;;;;;27.52;8.62;99612.84;5012379;28;20060;-82
2024/03/10 08:48:30;;;;;;;2.08;1.88;;;;;;;27.59;8.65;99621.59;5008886;28;20069;-82
2024/03/10 08:50:56;;;;;;;1.00;0.90;;;;;;;26.21;8.47;99606.59;5005130;28;20053;-79
2024/03/10 08:53:23;;;;;;;2.50;2.30;;;;;;;23.64;9.72;99616.81;4985362;28;20057;-83
2024/03/10 08:55:50;;;;;;;2.60;2.40;;;;;;;23.51;9.85;99621.72;4988079;28;20050;-82
2024/03/10 08:58:17;;;;;;;3.95;2.30;;;;;;;24.29;9.77;99617.19;5027523;28;20053;-85
2024/03/10 09:00:44;;;;;;;2.40;2.20;;;;;;;25.20;9.13;99614.72;5020401;28;20213;-82
2024/03/10 09:03:10;;;;;;;2.83;2.50;;;;;;;25.53;8.99;99628.19;4977271;28;20073;-74
2024/03/10 09:05:36;;;;;;;2.50;2.30;;;;;;;26.00;8.52;99620.28;4979366;28;20080;-76
2024/03/10 09:08:02;;;;;;;2.63;2.42;;;;;;;26.60;8.50;99622.69;4995694;28;20395;-76
2024/03/10 09:10:28;;;;;;;3.42;2.75;;;;;;;26.26;8.25;99622.97;5024339;28;20055;-74
2024/03/10 09:12:54;;;;;;;2.53;2.33;;;;;;;26.45;8.41;99631.56;5031740;28;20124;-76
2024/03/10 09:15:21;;;;;;;3.35;2.40;;;;;;;26.54;8.18;99637.34;5051737;28;20037;-76
2024/03/10 09:17:47;;;;;;;4.80;2.25;;;;;;;26.96;8.42;99633.56;5050504;28;20072;-77
2024/03/10 09:20:13;;;;;;;2.67;2.47;;;;;;;27.30;8.24;99631.31;5051632;28;20075;-76
2024/03/10 09:22:44;;;;;;;3.75;2.70;;;;;;;28.21;7.78;99629.66;5035108;28;20044;-76
2024/03/10 09:25:21;;;;;;;1.83;1.73;;;;;;;26.82;8.09;99635.13;5052699;28;20429;-79
2024/03/10 09:27:49;;;;;;;5.28;2.70;;;;;;;26.82;8.32;99629.66;5057726;28;20057;-77
2024/03/10 09:30:17;;;;;;;3.10;2.75;;;;;;;27.52;8.11;99635.47;4999156;28;20145;-77
2024/03/10 09:32:49;;;;;;;3.05;2.50;;;;;;;28.09;7.78;99620.91;5015793;28;20071;-76
2024/03/10 09:35:21;;;;;;;3.53;2.60;;;;;;;28.63;7.89;99633.75;5012940;28;20037;-78
2024/03/10 09:37:48;;;;;;;3.10;2.40;;;;;;;28.45;7.56;99634.28;5014630;28;20099;-77
2024/03/10 09:40:15;;;;;;;2.95;2.75;;;;;;;28.52;7.53;99637.63;5038608;28;20032;-77
2024/03/10 09:42:42;;;;;;;2.95;2.50;;;;;;;28.95;7.52;99634.25;5015271;28;20080;-79
2024/03/10 09:45:17;;;;;;;4.53;2.50;;;;;;;29.50;7.35;99638.72;5020020;28;20064;-78
2024/03/10 09:47:48;;;;;;;2.90;2.50;;;;;;;29.97;7.09;99630.81;5022496;28;20042;-77
2024/03/10 09:50:22;;;;;;;2.70;2.60;;;;;;;30.52;6.73;99629.59;5003374;28;20094;-77
2024/03/10 09:52:56;;;;;;;2.85;2.65;;;;;;;31.17;6.38;99624.25;5027794;28;20391;-78
2024/03/10 09:55:24;;;;;;;7.43;2.70;;;;;;;31.30;6.45;99631.00;5024771;28;20086;-79
2024/03/10 09:57:54;;;;;;;4.28;3.38;;;;;;;31.67;6.46;99631.06;5022361;28;20475;-76
2024/03/10 10:00:26;;;;;;;;;;;;;;;30.64;6.71;99627.28;5005914;28;20046;-77
2024/03/10 10:03:01;;;;;;;2.78;1.23;;;;;;;28.02;7.47;99621.16;5013561;28;19917;-77
2024/03/10 10:05:29;;;;;;;2.83;1.83;;;;;;;25.91;8.21;99630.78;4973715;28;20175;-77
2024/03/10 10:07:58;;;;;;;6.40;1.50;;;;;;;22.99;8.99;99620.84;4988094;28;20041;-76
2024/03/10 10:10:24;;;;;;;2.67;2.17;;;;;;;20.52;10.56;99623.38;4996818;28;20654;-76
2024/03/10 10:12:49;;;;;;;2.40;1.73;;;;;;;20.05;10.89;99623.94;4997979;28;20373;-76
2024/03/10 10:15:21;;;;;;;4.30;2.30;;;;;;;19.70;11.38;99620.03;5011382;28;20073;-76
2024/03/10 10:17:58;;;;;;;4.78;3.45;;;;;;;20.59;11.14;99620.59;5004836;28;20438;-78
2024/03/10 10:20:28;;;;;;;3.42;1.80;;;;;;;21.17;10.99;99619.16;5012922;28;20063;-77
2024/03/10 10:22:55;;;;;;;3.35;1.60;;;;;;;20.11;11.26;99617.69;4982517;28;20075;-77
2024/03/10 10:25:27;;;;;;;2.15;1.50;;;;;;;18.25;12.19;99621.47;4981885;28;20049;-76
2024/03/10 10:27:57;;;;;;;2.10;1.40;;;;;;;16.13;13.19;99620.16;4991835;28;20044;-76
2024/03/10 10:30:28;;;;;;;4.53;3.30;;;;;;;16.52;13.85;99627.69;5034681;28;20040;-77
2024/03/10 10:33:05;;;;;;;4.80;3.50;;;;;;;18.89;13.09;99627.00;5059255;28;20079;-76
2024/03/10 10:35:34;;;;;;;4.30;1.52;;;;;;;20.56;12.03;99648.03;5063749;28;20486;-75
2024/03/10 10:38:04;;;;;;;3.85;3.53;;;;;;;22.52;11.12;99638.22;5063760;28;20483;-77
2024/03/10 10:40:30;;;;;;;2.95;1.58;;;;;;;22.90;10.45;99633.97;5063913;28;20060;-78
2024/03/10 10:42:57;;;;;;;6.07;2.42;;;;;;;22.02;10.52;99639.63;5035165;28;20041;-75
2024/03/10 10:45:23;;;;;;;4.32;2.30;;;;;;;19.89;11.78;99638.78;5043976;28;20044;-75
2024/03/10 10:47:52;;;;;;;3.45;1.80;;;;;;;18.32;12.53;99632.25;5044582;28;20045;-77
2024/03/10 10:50:31;;;;;;;1.88;1.40;;;;;;;16.78;13.62;99634.06;5064526;28;20040;-75
2024/03/10 10:52:58;;;;;;;1.65;1.30;;;;;;;15.37;14.67;99636.06;5047377;28;20132;-75
2024/03/10 10:55:25;;;;;;;6.50;3.47;;;;;;;15.01;15.29;99622.66;5054477;28;20040;-77
2024/03/10 10:57:58;;;;;;;2.75;1.40;;;;;;;15.74;14.88;99637.72;5054364;28;20215;-76
2024/03/10 11:00:27;;;;;;;2.47;1.30;;;;;;;14.70;15.18;99640.75;5039612;28;20048;-78
2024/03/10 11:03:22;;;;;;;2.55;1.70;;;;;;;13.53;16.48;99631.56;5058827;28;20047;-75
2024/03/10 11:06:08;;;;;;;2.35;1.50;;;;;;;12.23;17.60;99639.41;5046269;28;20041;-76
2024/03/10 11:08:46;;;;;;;4.30;1.98;;;;;;;11.63;17.84;99635.41;5067547;28;20435;-72
2024/03/10 11:12:02;;;;;;;4.10;2.28;;;;;;;11.26;18.62;99649.09;5009926;28;20051;-77
2024/03/10 11:14:30;;;;;;;5.07;3.53;;;;;;;13.27;17.50;99647.06;5014260;28;20563;-75
2024/03/10 11:17:12;;;;;;;4.30;3.15;;;;;;;14.49;16.81;99648.66;5034072;28;20044;-72
2024/03/10 11:19:40;;;;;;;1.85;1.60;;;;;;;14.65;16.28;99656.50;5050616;28;20037;-73
2024/03/10 11:22:10;;;;;;;3.63;1.65;;;;;;;13.96;17.01;99647.97;5050914;28;20072;-73
2024/03/10 11:24:39;;;;;;;2.63;2.20;;;;;;;13.50;17.93;99652.44;5024882;28;20371;-71
2024/03/10 11:27:18;;;;;;;1.58;1.30;;;;;;;13.37;17.76;99663.72;5045451;28;20489;-75
2024/03/10 11:29:44;;;;;;;2.22;1.55;;;;;;;12.41;17.83;99655.19;5009178;28;20053;-77
2024/03/10 11:32:32;;;;;;;3.40;2.50;;;;;;;12.45;18.12;99649.38;5039400;28;20064;-75
2024/03/10 11:34:59;;;;;;;3.40;1.88;;;;;;;11.79;18.37;99654.06;5015635;28;20033;-76
2024/03/10 11:37:25;;;;;;;2.95;1.80;;;;;;;11.60;18.32;99651.66;5015441;28;20064;-76
2024/03/10 11:39:51;;;;;;;5.93;1.63;;;;;;;11.08;18.77;99644.88;5009298;28;20519;-76
2024/03/10 11:42:18;;;;;;;3.25;2.53;;;;;;;11.05;19.22;99645.22;5007131;28;20364;-77
2024/03/10 11:44:46;;;;;;;3.97;2.15;;;;;;;12.61;18.63;99645.84;5006463;28;20060;-76
2024/03/10 11:47:11;;;;;;;1.83;1.63;;;;;;;13.98;17.47;99656.59;4997548;28;20103;-77
2024/03/10 11:49:39;;;;;;;2.17;1.50;;;;;;;14.95;16.67;99660.84;4990039;28;20085;-77
2024/03/10 11:52:06;;;;;;;2.67;1.48;;;;;;;16.02;16.01;99668.09;4958297;28;20054;-76
2024/03/10 11:54:32;;;;;;;2.00;1.00;;;;;;;16.08;15.44;99667.31;4942495;28;20113;-78
2024/03/10 11:56:59;;;;;;;1.75;1.23;;;;;;;15.11;16.04;99662.50;4966796;28;20050;-77
2024/03/10 11:59:25;;;;;;;1.50;1.15;;;;;;;14.08;16.65;99662.53;4943142;28;20042;-77
2024/03/10 12:01:51;;;;;;;2.38;1.30;;;;;;;13.14;17.36;99664.66;4950491;28;20086;-76
2024/03/10 12:04:19;;;;;;;3.03;1.40;;;;;;;12.13;17.87;99670.69;4942019;28;20073;-77